Погода Глужневона 2 недели

Тверская область, Россия

22 мая-03 июня
  • 22мая
    Сегодня
    +8°
    +22°
    Ясно и безоблачно
    ВремяПогодаТемператураВлажностьДавлениеВетер, м/сВероятность осадков
    00:00Ясно и безоблачно+13°C56 %748 мм3.1 м/с2 %
    03:00Ясно и безоблачно+9°C60 %748 мм2.7 м/с2 %
    06:00Ясно и безоблачно+10°C64 %748 мм3.0 м/с2 %
    09:00Ясно и безоблачно+16°C52 %749 мм3.2 м/с2 %
    12:00Ясно и безоблачно+21°C38 %749 мм3.8 м/с2 %
    15:00Ясно и безоблачно+22°C35 %749 мм3.5 м/с2 %
    18:00Ясно и безоблачно+22°C36 %749 мм3.8 м/с1 %
    21:00Ясно и безоблачно+17°C48 %750 мм3.3 м/с2 %
  • 23мая
    Четверг
    +7°
    +20°
    Ясно и безоблачно
    ВремяПогодаТемператураВлажностьДавлениеВетер, м/сВероятность осадков
    00:00Ясно и безоблачно+12°C54 %750 мм3.4 м/с2 %
    03:00Ясно и безоблачно+10°C60 %751 мм3.5 м/с2 %
    06:00Ясно и безоблачно+9°C63 %752 мм3.5 м/с2 %
    09:00Ясно и безоблачно+16°C51 %753 мм3.4 м/с2 %
    12:00Ясно и безоблачно+19°C36 %754 мм4.5 м/с2 %
    15:00Ясно и безоблачно+20°C34 %753 мм4.1 м/с2 %
    18:00Ясно и безоблачно+20°C36 %753 мм4.1 м/с2 %
    21:00Ясно и безоблачно+16°C51 %754 мм2.8 м/с2 %
  • 24мая
    Пятница
    +8°
    +22°
    Ясно и безоблачно
    ВремяПогодаТемператураВлажностьДавлениеВетер, м/сВероятность осадков
    00:00Ясно и безоблачно+11°C60 %754 мм2.5 м/с2 %
    03:00Ясно и безоблачно+8°C67 %755 мм2.5 м/с2 %
    06:00Ясно и безоблачно+8°C67 %756 мм2.5 м/с2 %
    09:00Ясно и безоблачно+15°C44 %757 мм3.1 м/с2 %
    12:00Ясно и безоблачно+19°C32 %756 мм4.3 м/с2 %
    15:00Ясно и безоблачно+20°C30 %756 мм3.9 м/с2 %
    18:00Ясно и безоблачно+21°C30 %755 мм3.5 м/с2 %
    21:00Ясно и безоблачно+16°C47 %755 мм2.7 м/с2 %
  • 25мая
    Суббота
    +8°
    +24°
    Ясно и безоблачно
    ВремяПогодаТемператураВлажностьДавлениеВетер, м/сВероятность осадков
    00:00Ясно и безоблачно+11°C56 %755 мм3.0 м/с2 %
    03:00Ясно и безоблачно+8°C69 %755 мм2.4 м/с2 %
    06:00Ясно и безоблачно+8°C74 %754 мм2.4 м/с2 %
    09:00Ясно и безоблачно+16°C57 %754 мм2.1 м/с2 %
    12:00Ясно и безоблачно+21°C42 %754 мм2.5 м/с2 %
    15:00Ясно и безоблачно+23°C37 %753 мм2.6 м/с2 %
    18:00Ясно и безоблачно+24°C39 %751 мм2.1 м/с2 %
    21:00Ясно и безоблачно+18°C68 %751 мм2.1 м/с2 %
Мы используем cookies
Соглашаюсь